createdAt,value
2023-01-29T00:03:04.807Z,40.66
2023-01-29T00:13:11.601Z,40.65
2023-01-29T00:23:18.864Z,40.66
2023-01-29T00:33:25.773Z,40.72
2023-01-29T00:43:32.687Z,40.77
2023-01-29T00:53:40.137Z,40.72
2023-01-29T01:03:47.272Z,40.69
2023-01-29T01:13:53.984Z,40.60
2023-01-29T01:23:59.787Z,40.57
2023-01-29T01:34:07.183Z,40.48
2023-01-29T01:44:14.010Z,40.53
2023-01-29T01:54:21.464Z,40.47
2023-01-29T02:04:28.113Z,40.48
2023-01-29T02:14:35.534Z,40.42
2023-01-29T02:24:42.294Z,40.52
2023-01-29T02:34:49.181Z,40.60
2023-01-29T02:44:56.574Z,40.62
2023-01-29T02:55:03.394Z,40.54
2023-01-29T03:05:10.331Z,40.49
2023-01-29T03:15:17.706Z,40.42
2023-01-29T03:25:24.713Z,40.43
2023-01-29T03:35:31.673Z,40.41
2023-01-29T03:45:38.903Z,40.44
2023-01-29T03:55:45.878Z,40.36
2023-01-29T04:05:52.763Z,40.28
2023-01-29T04:16:00.115Z,40.35
2023-01-29T04:26:06.822Z,40.33
2023-01-29T04:36:14.133Z,40.39
2023-01-29T04:46:20.835Z,40.40
2023-01-29T04:56:28.010Z,40.43
2023-01-29T05:06:34.744Z,40.31
2023-01-29T05:16:42.219Z,40.40
2023-01-29T05:26:49.294Z,40.58
2023-01-29T05:36:56.458Z,40.81
2023-01-29T05:47:03.426Z,40.91
2023-01-29T05:57:10.129Z,40.94
2023-01-29T06:07:17.135Z,41.53
2023-01-29T06:17:24.297Z,42.35
2023-01-29T06:27:31.157Z,42.56
2023-01-29T06:37:38.322Z,42.51
2023-01-29T06:47:44.495Z,42.57
2023-01-29T06:57:51.409Z,42.18
2023-01-29T07:07:58.762Z,42.12
2023-01-29T07:18:05.431Z,42.21
2023-01-29T07:28:12.781Z,42.25
2023-01-29T07:38:19.745Z,42.28
2023-01-29T07:48:26.570Z,42.15
2023-01-29T07:58:35.734Z,42.19
2023-01-29T08:08:43.639Z,42.05
2023-01-29T08:18:50.886Z,42.18
2023-01-29T08:28:57.937Z,42.24
2023-01-29T08:39:04.689Z,42.18
2023-01-29T08:49:11.774Z,42.19
2023-01-29T08:59:18.671Z,42.24
2023-01-29T09:09:25.141Z,40.81
2023-01-29T09:19:32.171Z,40.79
2023-01-29T09:29:39.259Z,41.05
2023-01-29T09:39:45.904Z,41.18
2023-01-29T09:49:52.560Z,41.44
2023-01-29T10:00:01.536Z,42.19
2023-01-29T10:10:09.493Z,42.04
2023-01-29T10:20:16.627Z,41.83
2023-01-29T10:30:23.614Z,42.71
2023-01-29T10:40:30.347Z,44.12
2023-01-29T10:50:37.451Z,43.46
2023-01-29T11:00:44.400Z,43.68
2023-01-29T11:10:50.731Z,43.45
2023-01-29T11:20:58.084Z,42.75
2023-01-29T11:31:05.931Z,35.14
2023-01-29T11:41:12.620Z,40.05
2023-01-29T11:51:20.060Z,40.74
2023-01-29T12:01:27.023Z,41.58
2023-01-29T12:11:33.952Z,43.98
2023-01-29T12:21:40.755Z,48.26
2023-01-29T12:31:47.737Z,49.09
2023-01-29T12:41:55.147Z,48.85
2023-01-29T12:52:02.417Z,49.40
2023-01-29T13:02:08.956Z,50.87
2023-01-29T13:12:16.217Z,50.74
2023-01-29T13:22:22.926Z,50.44
2023-01-29T13:32:30.210Z,49.82
2023-01-29T13:42:37.084Z,49.57
2023-01-29T13:52:42.880Z,49.14
2023-01-29T14:02:50.001Z,48.93
2023-01-29T14:12:57.437Z,48.87
2023-01-29T14:23:05.475Z,48.85
2023-01-29T14:33:12.583Z,48.91
2023-01-29T14:43:19.618Z,48.51
2023-01-29T14:53:26.169Z,48.21
2023-01-29T15:03:32.540Z,47.93
2023-01-29T15:13:39.412Z,47.81
2023-01-29T15:23:46.648Z,47.97
2023-01-29T15:33:53.910Z,47.98
2023-01-29T15:44:00.890Z,48.18
2023-01-29T15:54:08.103Z,47.99
2023-01-29T16:04:14.834Z,47.74
2023-01-29T16:14:22.079Z,47.50
2023-01-29T16:24:28.874Z,47.13
2023-01-29T16:34:36.364Z,47.27
2023-01-29T16:44:43.469Z,44.46
2023-01-29T16:54:49.801Z,43.88
2023-01-29T17:04:56.953Z,43.53
2023-01-29T17:15:04.613Z,43.17
2023-01-29T17:25:11.286Z,43.10
2023-01-29T17:35:18.822Z,42.79
2023-01-29T17:45:25.228Z,42.43
2023-01-29T17:55:32.423Z,42.10
2023-01-29T18:05:39.379Z,41.95
2023-01-29T18:15:46.326Z,42.08
2023-01-29T18:25:53.195Z,42.09
2023-01-29T18:35:59.480Z,41.68
2023-01-29T18:46:06.630Z,41.74
2023-01-29T18:56:13.845Z,41.71
2023-01-29T19:06:20.563Z,41.69
2023-01-29T19:16:27.321Z,41.43
2023-01-29T19:26:33.829Z,41.54
2023-01-29T19:36:40.637Z,41.62
2023-01-29T19:46:47.717Z,41.72
2023-01-29T19:56:54.792Z,41.77
2023-01-29T20:07:01.941Z,41.66
2023-01-29T20:17:09.426Z,41.68
2023-01-29T20:27:16.764Z,42.45
2023-01-29T20:37:24.388Z,43.08
2023-01-29T20:47:31.068Z,43.31
2023-01-29T20:57:38.044Z,43.94
2023-01-29T21:07:45.001Z,44.23
2023-01-29T21:17:52.407Z,43.86
2023-01-29T21:27:59.075Z,43.66
2023-01-29T21:38:05.357Z,43.56
2023-01-29T21:48:12.430Z,43.60
2023-01-29T21:58:19.373Z,43.64
2023-01-29T22:08:26.490Z,43.77
2023-01-29T22:18:33.436Z,44.17
2023-01-29T22:28:40.383Z,44.28
2023-01-29T22:38:47.436Z,44.23
2023-01-29T22:48:54.554Z,43.74
2023-01-29T22:59:01.675Z,43.64
2023-01-29T23:09:08.330Z,43.49
2023-01-29T23:19:14.446Z,43.33
2023-01-29T23:29:20.651Z,43.29
2023-01-29T23:39:27.909Z,43.35
2023-01-29T23:49:34.827Z,43.30
2023-01-29T23:59:41.914Z,43.51
